Weather History for Jacksonville, TX

Change the Weather History Date:

Thursday, February 14, 2013

  Actual Average (KTYR) Record (KTYR)
Temperature  
Mean Temperature 50 °F 50 °F  
Max Temperature 62 °F 60 °F 83 °F (1945)
Min Temperature 37 °F 40 °F 11 °F (1899)
Degree Days  
Heating Degree Days 16 15  
Month to date heating degree days 227  
Since 1 July heating degree days 1705  
Cooling Degree Days 0 0  
Month to date cooling degree days 0  
Year to date cooling degree days 4  
Moisture  
Dew Point 32 °F    
Average Humidity 59    
Maximum Humidity 93    
Minimum Humidity 25    
Precipitation  
Precipitation 0.00 in 0.15 in 1.72 in (1959)
Month to date precipitation 1.85  
Year to date precipitation 4.91  
Snow  
Snow 0.00 in - - ()
Month to date snowfall  
Since 1 July snowfall  
Snow Depth -    
Sea Level Pressure  
Sea Level Pressure 30.10 in    
Wind  
Wind Speed 5 mph (SSW)    
Max Wind Speed 8 mph    
Max Gust Speed -    
Visibility 10 miles    
Events      
T = Trace of Precipitation, MM = Missing Value Source: NWS Daily Summary

Daily Weather History Graph

Daily Weather History Graph

Search for Another Location

Airport:

Trip Planner

Search our weather history database for the weather conditions in past years. The results will help you decide how hot, cold, wet, or windy it might be!

Date:

Astronomy

Feb. 14, 2013 Rise Set
Actual Time 7:03 AM CST 6:06 PM CST
Civil Twilight 6:38 AM CST 6:31 PM CST
Nautical Twilight 6:09 AM CST 7:00 PM CST
Astronomical Twilight 5:41 AM CST 7:28 PM CST
Moon 9:26 AM CST (2/14) 10:48 PM CST (2/14)
Length of Visible Light 11h 53m
Length of Day
11h 03m
Waxing Crescent, 22% of the Moon is Illuminated
Feb 14
Waxing Crescent
Feb 17
First Quarter
Feb 25
Full
Mar 4
Last Quarter
Mar 11
New

Hourly Weather History & Observations

Time (CST) Temp. Windchill Dew Point Humidity Pressure Visibility Wind Dir Wind Speed Gust Speed Precip Events Conditions
12:15 AM 38.7 °F 35.2 °F 36.1 °F 91% 30.09 in 10.0 mi SSW 4.6 mph - N/A   Clear
12:35 AM 38.5 °F 35.0 °F 36.0 °F 91% 30.09 in 10.0 mi South 4.6 mph - N/A   Clear
12:55 AM 37.6 °F 34.0 °F 35.8 °F 93% 30.09 in 10.0 mi South 4.6 mph - N/A   Clear
1:15 AM 38.1 °F 33.7 °F 36.0 °F 92% 30.09 in 10.0 mi SSW 5.8 mph - N/A   Clear
1:35 AM 38.3 °F 34.8 °F 36.0 °F 91% 30.09 in 10.0 mi SSW 4.6 mph - N/A   Clear
1:55 AM 38.5 °F 35.0 °F 36.0 °F 91% 30.09 in 10.0 mi South 4.6 mph - N/A   Clear
2:15 AM 38.3 °F 33.9 °F 36.0 °F 91% 30.09 in 10.0 mi South 5.8 mph - N/A   Clear
2:35 AM 38.3 °F 33.9 °F 36.0 °F 91% 30.08 in 10.0 mi South 5.8 mph - N/A   Clear
2:55 AM 38.3 °F 34.8 °F 36.0 °F 91% 30.08 in 10.0 mi South 4.6 mph - N/A   Clear
3:15 AM 38.3 °F 34.8 °F 35.8 °F 91% 30.08 in 10.0 mi SSW 4.6 mph - N/A   Clear
3:35 AM 37.9 °F 34.4 °F 35.8 °F 92% 30.08 in 10.0 mi South 4.6 mph - N/A   Clear
3:55 AM 37.6 °F 34.0 °F 35.6 °F 93% 30.08 in 10.0 mi SSW 4.6 mph - N/A   Clear
4:15 AM 37.8 °F 34.2 °F 35.6 °F 92% 30.08 in 10.0 mi South 4.6 mph - N/A   Clear
4:35 AM 38.7 °F 34.3 °F 35.6 °F 89% 30.09 in 10.0 mi SSW 5.8 mph - N/A   Clear
4:55 AM 38.3 °F 34.8 °F 35.1 °F 88% 30.09 in 10.0 mi SSW 4.6 mph - N/A   Clear
5:15 AM 38.8 °F 34.6 °F 34.2 °F 83% 30.09 in 10.0 mi SSW 5.8 mph - N/A   Clear
5:35 AM 39.2 °F 35.0 °F 33.1 °F 79% 30.10 in 10.0 mi SSW 5.8 mph - N/A   Clear
5:55 AM 39.2 °F 35.9 °F 32.5 °F 77% 30.10 in 10.0 mi South 4.6 mph - N/A   Clear
6:15 AM 38.3 °F 34.8 °F 33.8 °F 84% 30.11 in 10.0 mi South 4.6 mph - N/A   Clear
6:35 AM 38.8 °F 33.8 °F 33.6 °F 82% 30.11 in 10.0 mi South 6.9 mph - N/A   Clear
6:55 AM 38.8 °F 35.4 °F 33.1 °F 80% 30.11 in 10.0 mi South 4.6 mph - N/A   Clear
7:15 AM 37.6 °F 32.3 °F 34.2 °F 87% 30.12 in 10.0 mi SSW 6.9 mph - N/A   Clear
7:35 AM 37.6 °F 34.0 °F 34.3 °F 88% 30.12 in 10.0 mi SSW 4.6 mph - N/A   Clear
7:55 AM 38.7 °F 34.3 °F 34.5 °F 85% 30.13 in 10.0 mi SSW 5.8 mph - N/A   Clear
8:15 AM 39.7 °F 35.6 °F 35.2 °F 84% 30.14 in 10.0 mi SW 5.8 mph - N/A   Clear
8:35 AM 40.1 °F 36.1 °F 35.8 °F 85% 30.15 in 10.0 mi SW 5.8 mph - N/A   Clear
8:55 AM 41.0 °F 35.8 °F 37.2 °F 86% 30.15 in 10.0 mi SW 8.1 mph - N/A   Clear
9:15 AM 41.4 °F 36.8 °F 37.4 °F 86% 30.16 in 10.0 mi SSW 6.9 mph - N/A   Clear
9:35 AM 43.2 °F 39.7 °F 38.1 °F 82% 30.16 in 10.0 mi SW 5.8 mph - N/A   Clear
9:55 AM 45.3 °F 41.6 °F 38.3 °F 76% 30.16 in 10.0 mi SW 6.9 mph - N/A   Clear
10:15 AM 47.7 °F - 37.8 °F 69% 30.16 in 10.0 mi SW 4.6 mph - N/A   Clear
10:35 AM 48.9 °F - 37.8 °F 65% 30.16 in 10.0 mi SSW 4.6 mph - N/A   Clear
10:55 AM 50.5 °F - 36.5 °F 59% 30.16 in 10.0 mi SSW 4.6 mph - N/A   Clear
11:15 AM 52.7 °F - 35.6 °F 52% 30.16 in 10.0 mi WSW 3.5 mph - N/A   Clear
11:35 AM 54.1 °F - 33.1 °F 45% 30.15 in 10.0 mi SSW 5.8 mph - N/A   Clear
11:55 AM 55.4 °F - 31.3 °F 40% 30.15 in 10.0 mi SSW 5.8 mph - N/A   Clear
12:15 PM 57.2 °F - 31.8 °F 38% 30.14 in 10.0 mi SW 5.8 mph - N/A   Clear
12:35 PM 57.2 °F - 31.6 °F 38% 30.14 in 10.0 mi WSW 6.9 mph - N/A   Clear
12:55 PM 57.6 °F - 30.6 °F 36% 30.13 in 10.0 mi WSW 6.9 mph - N/A   Clear
1:15 PM 59.0 °F - 29.7 °F 33% 30.11 in 10.0 mi South 4.6 mph - N/A   Clear
1:35 PM 59.5 °F - 28.2 °F 30% 30.10 in 10.0 mi SSE 4.6 mph - N/A   Clear
2:15 PM 60.8 °F - 27.5 °F 28% 30.08 in 10.0 mi SSW 5.8 mph - N/A   Clear
2:35 PM 61.2 °F - 27.5 °F 28% 30.08 in 10.0 mi Calm Calm - N/A   Clear
2:55 PM 61.9 °F - 27.5 °F 27% 30.07 in 10.0 mi South 3.5 mph - N/A   Clear
3:15 PM 61.9 °F - 26.8 °F 26% 30.07 in 10.0 mi Calm Calm - N/A   Clear
3:35 PM 62.1 °F - 25.9 °F 25% 30.07 in 10.0 mi WSW 5.8 mph - N/A   Clear
3:55 PM 62.2 °F - 27.0 °F 26% 30.07 in 10.0 mi Calm Calm - N/A   Clear
4:15 PM 62.6 °F - 27.0 °F 26% 30.07 in 10.0 mi West 3.5 mph - N/A   Clear
4:35 PM 62.2 °F - 25.9 °F 25% 30.06 in 10.0 mi South 3.5 mph - N/A   Clear
4:55 PM 61.9 °F - 25.2 °F 25% 30.06 in 10.0 mi South 4.6 mph - N/A   Clear
5:15 PM 61.2 °F - 25.0 °F 25% 30.06 in 10.0 mi Calm Calm - N/A   Clear
5:35 PM 60.8 °F - 25.9 °F 26% 30.06 in 10.0 mi Calm Calm - N/A   Clear
6:15 PM 57.6 °F - 26.8 °F 31% 30.07 in 10.0 mi South 3.5 mph - N/A   Clear
6:35 PM 56.5 °F - 26.6 °F 32% 30.08 in 10.0 mi South 3.5 mph - N/A   Clear
6:55 PM 56.3 °F - 26.2 °F 32% 30.08 in 10.0 mi South 3.5 mph - N/A   Clear
7:15 PM 55.4 °F - 27.0 °F 34% 30.08 in 10.0 mi South 3.5 mph - N/A   Clear
7:35 PM 54.9 °F - 27.7 °F 35% 30.08 in 10.0 mi South 4.6 mph - N/A   Clear
7:55 PM 54.9 °F - 27.0 °F 34% 30.08 in 10.0 mi South 4.6 mph - N/A   Clear
8:15 PM 54.5 °F - 27.0 °F 35% 30.08 in 10.0 mi South 4.6 mph - N/A   Clear
8:35 PM 51.6 °F - 29.3 °F 42% 30.09 in 10.0 mi South 3.5 mph - N/A   Clear
8:55 PM 51.8 °F - 28.2 °F 40% 30.10 in 10.0 mi South 3.5 mph - N/A   Clear
9:15 PM 52.2 °F - 27.9 °F 39% 30.10 in 10.0 mi South 3.5 mph - N/A   Clear
9:35 PM 50.9 °F - 28.8 °F 43% 30.10 in 10.0 mi SSE 3.5 mph - N/A   Clear
9:55 PM 50.0 °F - 28.8 °F 44% 30.09 in 10.0 mi SSE 3.5 mph - N/A   Clear
10:15 PM 50.4 °F - 28.8 °F 43% 30.10 in 10.0 mi Calm Calm - N/A   Clear
10:35 PM 50.9 °F - 28.9 °F 43% 30.08 in 10.0 mi SSE 4.6 mph - N/A   Clear
10:55 PM 50.0 °F - 29.7 °F 46% 30.09 in 10.0 mi Calm Calm - N/A   Clear
11:15 PM 49.5 °F - 30.4 °F 48% 30.09 in 10.0 mi SSE 4.6 mph - N/A   Clear
11:35 PM 49.1 °F - 30.0 °F 48% 30.09 in 10.0 mi SSE 4.6 mph - N/A   Clear
11:55 PM 49.1 °F - 31.3 °F 50% 30.10 in 10.0 mi SSE 4.6 mph - N/A   Clear